Time;durP1;ratioP1;P1;durP2;ratioP2;P2;SDS_P1;SDS_P2;PMS_P1;PMS_P2;Temp;Humidity;BMP_temperature;BMP_pressure;BME280_temperature;BME280_humidity;BME280_pressure;Samples;Min_cycle;Max_cycle;Signal;HPM_P1;HPM_P2
2023/10/15 00:00:15;;;;;;;28.42;13.10;;;;;;;-0.61;100.00;102228.72;5020278;28;20035;-74
2023/10/15 00:02:42;;;;;;;24.85;14.35;;;;;;;-0.64;100.00;102216.53;5019736;28;20029;-72
2023/10/15 00:05:12;;;;;;;22.92;11.98;;;;;;;-0.48;100.00;102214.94;5003502;28;20034;-74
2023/10/15 00:07:45;;;;;;;25.52;14.63;;;;;;;-0.41;100.00;102227.88;5003652;28;20032;-73
2023/10/15 00:10:14;;;;;;;19.88;12.63;;;;;;;-0.49;100.00;102217.63;5003383;28;20094;-73
2023/10/15 00:12:44;;;;;;;25.92;12.35;;;;;;;-0.55;100.00;102216.13;5003192;28;20086;-74
2023/10/15 00:15:16;;;;;;;17.67;9.52;;;;;;;-0.55;100.00;102213.50;5003441;28;20377;-73
2023/10/15 00:17:42;;;;;;;17.52;9.13;;;;;;;-0.59;100.00;102208.41;5020303;28;20026;-74
2023/10/15 00:20:19;;;;;;;17.00;8.48;;;;;;;-0.71;100.00;102210.66;5003356;28;20041;-74
2023/10/15 00:22:46;;;;;;;14.27;8.93;;;;;;;-0.80;100.00;102218.97;5003234;28;20037;-75
2023/10/15 00:25:13;;;;;;;11.05;5.05;;;;;;;-0.85;100.00;102212.19;5002974;28;20508;-74
2023/10/15 00:27:42;;;;;;;9.73;4.97;;;;;;;-0.81;100.00;102208.50;5002850;28;20029;-74
2023/10/15 00:30:12;;;;;;;9.27;6.22;;;;;;;-0.81;100.00;102213.78;5003101;28;20029;-74
2023/10/15 00:32:42;;;;;;;12.13;5.35;;;;;;;-0.75;100.00;102209.06;5003099;28;20069;-76
2023/10/15 00:35:13;;;;;;;12.55;5.22;;;;;;;-0.67;100.00;102206.94;5020060;28;20032;-74
2023/10/15 00:37:40;;;;;;;5.93;3.50;;;;;;;-0.73;100.00;102212.50;5003098;28;20079;-74
2023/10/15 00:40:16;;;;;;;7.50;4.57;;;;;;;-0.86;100.00;102211.31;5035350;28;20030;-74
2023/10/15 00:42:44;;;;;;;7.65;3.95;;;;;;;-0.97;100.00;102219.72;4988193;28;20095;-74
2023/10/15 00:45:14;;;;;;;7.57;4.47;;;;;;;-0.93;100.00;102217.78;5018988;28;20025;-74
2023/10/15 00:47:44;;;;;;;5.00;3.40;;;;;;;-0.76;100.00;102206.50;5019203;28;20065;-74
2023/10/15 00:50:10;;;;;;;5.63;2.55;;;;;;;-0.64;100.00;102200.66;5002577;28;20044;-73
2023/10/15 00:52:42;;;;;;;4.90;2.75;;;;;;;-0.71;100.00;102204.53;5002426;28;20033;-73
2023/10/15 00:55:35;;;;;;;4.07;2.38;;;;;;;-0.78;100.00;102217.13;4986494;28;20504;-74
2023/10/15 00:58:07;;;;;;;3.70;3.00;;;;;;;-0.80;100.00;102212.84;5005288;28;20032;-74
2023/10/15 01:00:52;;;;;;;13.90;4.53;;;;;;;-0.45;100.00;102224.47;5019056;28;20029;-74
2023/10/15 01:03:26;;;;;;;11.75;4.55;;;;;;;-0.02;100.00;102219.91;4988626;28;20046;-74
2023/10/15 01:06:05;;;;;;;5.50;2.97;;;;;;;0.04;100.00;102218.75;5003736;28;20444;-74
2023/10/15 01:08:40;;;;;;;4.38;3.15;;;;;;;0.01;100.00;102195.94;5001878;28;20033;-75
2023/10/15 01:11:10;;;;;;;12.48;3.92;;;;;;;0.13;100.00;102218.31;5003751;28;20500;-74
2023/10/15 01:13:40;;;;;;;5.65;3.70;;;;;;;-0.05;100.00;102210.31;5002118;28;20033;-74
2023/10/15 01:16:09;;;;;;;8.27;3.25;;;;;;;-0.23;100.00;102230.53;4986646;28;20034;-74
2023/10/15 01:18:36;;;;;;;8.75;4.32;;;;;;;-0.51;100.00;102225.63;5018294;28;20034;-74
2023/10/15 01:21:12;;;;;;;13.02;5.07;;;;;;;-0.58;100.00;102225.94;5002059;28;20116;-74
2023/10/15 01:26:14;;;;;;;6.93;3.55;;;;;;;-0.55;100.00;102228.47;5018386;28;20021;-73
2023/10/15 01:28:57;;;;;;;7.82;3.10;;;;;;;-0.67;100.00;102227.22;5003254;28;20498;-74
2023/10/15 01:31:24;;;;;;;8.13;3.42;;;;;;;-0.76;100.00;102233.78;4985899;28;20034;-74
2023/10/15 01:33:50;;;;;;;5.97;3.08;;;;;;;-0.78;100.00;102232.97;4986071;28;20033;-74
2023/10/15 01:36:27;;;;;;;7.55;3.35;;;;;;;-0.79;100.00;102235.69;4985694;28;20119;-74
2023/10/15 01:39:09;;;;;;;5.68;3.55;;;;;;;-0.84;100.00;102232.41;4986954;28;20440;-75
2023/10/15 01:41:39;;;;;;;7.75;2.97;;;;;;;-0.98;100.00;102225.94;5034460;28;20033;-73
2023/10/15 01:44:07;;;;;;;5.35;2.70;;;;;;;-1.14;100.00;102241.56;5002034;28;20045;-74
2023/10/15 01:49:07;;;;;;;4.93;2.60;;;;;;;-1.36;100.00;102244.19;5019144;28;20033;-73
2023/10/15 01:51:45;;;;;;;5.68;3.10;;;;;;;-1.44;100.00;102233.09;5017670;28;20029;-74
2023/10/15 01:54:13;;;;;;;8.88;3.10;;;;;;;-1.34;100.00;102225.69;5017655;28;20045;-74
2023/10/15 01:56:45;;;;;;;5.28;3.55;;;;;;;-1.37;100.00;102221.38;5001419;28;20191;-74
2023/10/15 01:59:11;;;;;;;9.98;4.78;;;;;;;-1.31;100.00;102224.69;5001317;28;20041;-74
2023/10/15 02:01:49;;;;;;;4.72;3.40;;;;;;;-1.29;100.00;102228.13;4984990;28;20029;-74
2023/10/15 02:04:26;;;;;;;6.30;3.97;;;;;;;-1.30;100.00;102231.69;5003747;28;20041;-74
2023/10/15 02:06:53;;;;;;;10.38;4.85;;;;;;;-1.36;100.00;102223.09;4986293;28;20099;-74
2023/10/15 02:09:22;;;;;;;6.28;4.10;;;;;;;-1.35;100.00;102230.09;5017303;28;20497;-74
2023/10/15 02:11:51;;;;;;;4.38;3.28;;;;;;;-1.24;100.00;102227.03;5001811;28;20124;-74
2023/10/15 02:14:27;;;;;;;5.10;2.60;;;;;;;-1.28;100.00;102229.84;5016911;28;20043;-74
2023/10/15 02:16:53;;;;;;;11.45;2.60;;;;;;;-1.32;100.00;102239.66;5001127;28;20045;-73
2023/10/15 02:19:34;;;;;;;6.78;2.88;;;;;;;-1.34;100.00;102242.38;5000690;28;20132;-74
2023/10/15 02:22:12;;;;;;;5.55;2.72;;;;;;;-1.17;100.00;102230.25;5001412;28;20482;-74
2023/10/15 02:24:47;;;;;;;4.75;2.17;;;;;;;-1.10;100.00;102215.88;4998184;28;20164;-74
2023/10/15 02:27:25;;;;;;;3.25;1.92;;;;;;;-1.12;100.00;102220.34;5033157;28;20044;-74
2023/10/15 02:29:51;;;;;;;6.45;1.90;;;;;;;-1.20;100.00;102228.59;5001221;28;20029;-74
2023/10/15 02:32:21;;;;;;;3.13;2.15;;;;;;;-1.30;100.00;102231.69;5033643;28;20044;-74
2023/10/15 02:34:50;;;;;;;5.80;2.50;;;;;;;-1.41;100.00;102232.13;5001384;28;20128;-74
2023/10/15 02:37:18;;;;;;;5.50;2.78;;;;;;;-1.29;100.00;102230.78;5000850;28;20029;-74
2023/10/15 02:39:52;;;;;;;7.18;3.05;;;;;;;-1.19;100.00;102226.81;5000565;28;20037;-74
2023/10/15 02:42:19;;;;;;;4.10;1.90;;;;;;;-1.27;100.00;102236.81;5000557;28;20041;-74
2023/10/15 02:44:50;;;;;;;6.53;2.05;;;;;;;-1.48;100.00;102236.78;5032923;28;20022;-74
2023/10/15 02:47:19;;;;;;;2.47;1.65;;;;;;;-1.69;100.00;102241.16;5000263;28;20030;-74
2023/10/15 02:50:04;;;;;;;4.88;2.05;;;;;;;-1.66;100.00;102229.63;5000152;28;20036;-73
2023/10/15 02:53:05;;;;;;;2.25;1.75;;;;;;;-1.69;100.00;102229.72;5000091;28;20037;-74
2023/10/15 02:55:35;;;;;;;3.17;2.13;;;;;;;-1.67;100.00;102223.47;5000847;28;20045;-74
2023/10/15 02:58:02;;;;;;;3.47;1.98;;;;;;;-1.69;100.00;102216.53;5002359;28;20473;-74
2023/10/15 03:00:28;;;;;;;3.33;1.83;;;;;;;-1.66;100.00;102227.84;5000183;28;20029;-75
2023/10/15 03:02:55;;;;;;;3.35;2.25;;;;;;;-1.66;100.00;102234.91;5016402;28;20460;-74
2023/10/15 03:05:30;;;;;;;6.28;2.63;;;;;;;-1.53;100.00;102220.28;4983841;28;20061;-74
2023/10/15 03:07:59;;;;;;;2.63;1.83;;;;;;;-1.40;100.00;102226.78;5001594;28;20363;-73
2023/10/15 03:10:30;;;;;;;3.97;1.98;;;;;;;-1.30;100.00;102223.75;5016421;28;20116;-74
2023/10/15 03:13:01;;;;;;;3.15;1.83;;;;;;;-1.43;100.00;102229.56;5032954;28;20021;-74
2023/10/15 03:15:29;;;;;;;2.88;1.60;;;;;;;-1.60;100.00;102227.56;5016395;28;20481;-74
2023/10/15 03:17:56;;;;;;;4.15;2.50;;;;;;;-1.59;100.00;102233.72;4983925;28;20474;-74
2023/10/15 03:20:25;;;;;;;5.00;2.45;;;;;;;-1.62;100.00;102223.28;5016009;28;20052;-74
2023/10/15 03:22:58;;;;;;;5.63;2.38;;;;;;;-1.71;100.00;102231.56;5016315;28;20029;-74
2023/10/15 03:25:26;;;;;;;3.08;1.75;;;;;;;-1.87;100.00;102232.16;4984442;28;20051;-74
2023/10/15 03:27:54;;;;;;;2.28;1.58;;;;;;;-2.04;100.00;102229.31;5016223;28;20041;-74
2023/10/15 03:30:24;;;;;;;3.70;1.90;;;;;;;-2.20;100.00;102234.28;5015764;28;20021;-74
2023/10/15 03:32:53;;;;;;;5.25;2.65;;;;;;;-2.17;100.00;102236.84;4999951;28;20461;-74
2023/10/15 03:35:45;;;;;;;3.55;1.83;;;;;;;-2.13;100.00;102227.03;4983572;28;20033;-74
2023/10/15 03:38:08;;;;;;;4.25;2.03;;;;;;;-2.14;100.00;102233.22;4988253;28;20053;-74
2023/10/15 03:40:46;;;;;;;3.28;2.00;;;;;;;-2.15;100.00;102235.00;4984081;28;20025;-74
2023/10/15 03:43:20;;;;;;;4.07;1.92;;;;;;;-2.15;100.00;102237.63;5015846;28;20045;-73
2023/10/15 03:45:52;;;;;;;2.70;1.90;;;;;;;-2.16;100.00;102221.88;4984229;28;20041;-73
2023/10/15 03:48:32;;;;;;;4.57;2.40;;;;;;;-1.95;100.00;102223.69;5015986;28;20061;-74
2023/10/15 03:50:59;;;;;;;2.42;1.42;;;;;;;-1.91;100.00;102222.66;5000755;28;20033;-74
2023/10/15 03:53:28;;;;;;;3.03;1.85;;;;;;;-2.00;100.00;102225.66;4999846;28;20041;-73
2023/10/15 03:56:06;;;;;;;2.65;1.63;;;;;;;-2.12;100.00;102237.50;4999677;28;20444;-73
2023/10/15 03:58:32;;;;;;;3.97;2.05;;;;;;;-2.14;100.00;102233.22;4999742;28;20041;-73
2023/10/15 04:03:47;;;;;;;2.25;1.67;;;;;;;-2.39;100.00;102225.38;5001816;28;20489;-73
2023/10/15 04:06:17;;;;;;;2.38;1.60;;;;;;;-2.38;100.00;102242.88;5001185;28;20072;-73
2023/10/15 04:11:42;;;;;;;4.82;2.10;;;;;;;-2.19;100.00;102238.66;5018214;28;20033;-73
2023/10/15 04:14:22;;;;;;;3.35;1.70;;;;;;;-2.09;100.00;102220.72;4969784;28;20069;-73
2023/10/15 04:16:51;;;;;;;4.60;1.77;;;;;;;-2.18;100.00;102215.81;4985380;28;20067;-73
2023/10/15 04:19:19;;;;;;;2.65;1.98;;;;;;;-2.27;100.00;102225.78;4999454;28;20036;-73
2023/10/15 04:21:45;;;;;;;6.22;2.20;;;;;;;-2.22;100.00;102229.09;4999391;28;20037;-73
2023/10/15 04:24:14;;;;;;;4.25;2.10;;;;;;;-2.02;100.00;102222.22;5015739;28;20168;-74
2023/10/15 04:26:42;;;;;;;6.10;2.13;;;;;;;-1.95;100.00;102222.84;4999543;28;20049;-73
2023/10/15 04:29:18;;;;;;;3.92;1.80;;;;;;;-2.04;100.00;102231.94;5000490;28;20029;-73
2023/10/15 04:31:46;;;;;;;8.48;2.00;;;;;;;-2.11;100.00;102239.25;4999593;28;20124;-73
2023/10/15 04:34:18;;;;;;;3.67;1.40;;;;;;;-2.14;100.00;102233.22;5031850;28;20033;-74
2023/10/15 04:36:49;;;;;;;3.58;1.63;;;;;;;-2.09;100.00;102226.00;4999394;28;20543;-73
2023/10/15 04:39:16;;;;;;;5.07;1.55;;;;;;;-2.10;100.00;102226.91;4999899;28;20079;-74
2023/10/15 04:41:49;;;;;;;3.53;1.58;;;;;;;-2.11;100.00;102233.97;4982863;28;20029;-74
2023/10/15 04:44:31;;;;;;;8.38;2.03;;;;;;;-2.17;100.00;102230.69;4986814;28;20109;-73
2023/10/15 04:47:05;;;;;;;2.10;1.27;;;;;;;-2.23;100.00;102218.59;5019168;28;20116;-74
2023/10/15 04:49:34;;;;;;;8.15;1.80;;;;;;;-2.11;100.00;102215.53;5020207;28;20030;-74
2023/10/15 04:52:00;;;;;;;3.92;1.70;;;;;;;-2.15;100.00;102210.41;5002490;28;20128;-73
2023/10/15 04:54:26;;;;;;;5.82;2.28;;;;;;;-2.14;100.00;102214.75;4986429;28;20060;-73
2023/10/15 04:56:52;;;;;;;5.50;1.73;;;;;;;-2.15;100.00;102213.06;5002678;28;20041;-73
2023/10/15 04:59:18;;;;;;;7.32;3.00;;;;;;;-2.18;100.00;102206.13;4986491;28;20037;-74
2023/10/15 05:01:45;;;;;;;4.50;2.00;;;;;;;-2.07;100.00;102213.63;5001916;28;20091;-73
2023/10/15 05:04:13;;;;;;;4.05;1.90;;;;;;;-2.18;100.00;102214.03;5002878;28;20033;-74
2023/10/15 05:06:43;;;;;;;7.35;2.17;;;;;;;-2.30;100.00;102215.38;5002649;28;20584;-73
2023/10/15 05:09:20;;;;;;;5.35;1.70;;;;;;;-2.31;100.00;102215.41;4987179;28;20037;-73
2023/10/15 05:11:50;;;;;;;5.28;1.70;;;;;;;-2.28;100.00;102207.38;5020332;28;20036;-73
2023/10/15 05:14:19;;;;;;;3.75;1.10;;;;;;;-2.41;100.00;102204.34;5002550;28;20037;-73
2023/10/15 05:16:48;;;;;;;5.47;1.80;;;;;;;-2.48;100.00;102216.88;5002136;28;20068;-73
2023/10/15 05:19:17;;;;;;;4.38;1.58;;;;;;;-2.53;100.00;102204.81;5002293;28;20029;-74
2023/10/15 05:21:46;;;;;;;5.65;1.83;;;;;;;-2.46;100.00;102216.81;5002279;28;20534;-73
2023/10/15 05:24:18;;;;;;;3.75;1.63;;;;;;;-2.45;100.00;102208.88;4985874;28;20045;-74
2023/10/15 05:26:50;;;;;;;3.13;1.65;;;;;;;-2.44;100.00;102202.69;5003379;28;20049;-73
2023/10/15 05:29:16;;;;;;;5.38;1.60;;;;;;;-2.44;100.00;102204.47;5002143;28;20029;-73
2023/10/15 05:31:42;;;;;;;2.42;1.83;;;;;;;-2.44;100.00;102209.72;5002001;28;20067;-73
2023/10/15 05:34:09;;;;;;;7.05;1.85;;;;;;;-2.51;100.00;102214.38;5001725;28;20112;-73
2023/10/15 05:36:38;;;;;;;2.38;1.45;;;;;;;-2.56;100.00;102205.78;4985876;28;20124;-74
2023/10/15 05:39:10;;;;;;;5.97;2.08;;;;;;;-2.33;100.00;102202.31;5001686;28;20059;-73
2023/10/15 05:41:37;;;;;;;3.72;1.63;;;;;;;-2.32;100.00;102206.66;5002669;28;20037;-73
2023/10/15 05:44:03;;;;;;;5.47;1.38;;;;;;;-2.44;100.00;102207.94;4969595;28;20041;-73
2023/10/15 05:46:29;;;;;;;7.07;2.40;;;;;;;-2.41;100.00;102220.16;4970359;28;20052;-75
2023/10/15 05:48:55;;;;;;;4.75;1.85;;;;;;;-2.23;100.00;102208.94;4985555;28;20095;-73
2023/10/15 05:51:21;;;;;;;7.18;1.63;;;;;;;-2.11;100.00;102209.41;4985433;28;20393;-73
2023/10/15 05:53:46;;;;;;;3.65;1.92;;;;;;;-2.13;100.00;102208.59;4983896;28;20034;-73
2023/10/15 05:56:13;;;;;;;4.53;1.90;;;;;;;-2.22;100.00;102209.81;4985546;28;20037;-73
2023/10/15 05:58:39;;;;;;;3.90;1.73;;;;;;;-2.26;100.00;102213.47;5017771;28;20148;-73
2023/10/15 06:01:05;;;;;;;3.97;1.88;;;;;;;-2.35;100.00;102204.13;5017873;28;20493;-73
2023/10/15 06:03:34;;;;;;;6.93;1.80;;;;;;;-2.37;100.00;102205.97;5001676;28;20076;-74
2023/10/15 06:06:07;;;;;;;6.38;2.10;;;;;;;-2.46;100.00;102201.91;4985448;28;20072;-73
2023/10/15 06:08:33;;;;;;;10.10;2.28;;;;;;;-2.44;100.00;102209.72;4985465;28;20057;-73
2023/10/15 06:10:58;;;;;;;3.53;1.85;;;;;;;-2.42;100.00;102204.41;5001054;28;20481;-73
2023/10/15 06:13:24;;;;;;;3.92;1.88;;;;;;;-2.48;100.00;102195.81;4985058;28;20029;-74
2023/10/15 06:15:50;;;;;;;2.20;1.80;;;;;;;-2.38;100.00;102206.00;4985068;28;20429;-73
2023/10/15 06:18:16;;;;;;;1.88;1.45;;;;;;;-2.18;100.00;102205.28;5000966;28;20036;-74
2023/10/15 06:20:51;;;;;;;4.88;1.65;;;;;;;-2.11;100.00;102201.50;4984580;28;20041;-73
2023/10/15 06:23:18;;;;;;;2.17;1.55;;;;;;;-2.20;100.00;102202.69;4985646;28;20037;-73
2023/10/15 06:25:44;;;;;;;3.00;1.75;;;;;;;-2.32;100.00;102205.78;4984613;28;20033;-73
2023/10/15 06:28:14;;;;;;;2.88;1.88;;;;;;;-2.35;100.00;102208.56;5000845;28;20036;-74
2023/10/15 06:30:41;;;;;;;3.58;1.25;;;;;;;-2.45;100.00;102214.13;5001004;28;20029;-73
2023/10/15 06:33:09;;;;;;;2.20;1.67;;;;;;;-2.46;100.00;102212.44;5000979;28;20041;-73
2023/10/15 06:35:40;;;;;;;3.72;1.83;;;;;;;-2.47;100.00;102225.66;4984567;28;20128;-74
2023/10/15 06:38:05;;;;;;;3.40;1.73;;;;;;;-2.50;100.00;102223.97;4984893;28;20041;-73
2023/10/15 06:40:31;;;;;;;4.82;1.83;;;;;;;-2.53;100.00;102232.00;4984474;28;20033;-74
2023/10/15 06:43:00;;;;;;;1.90;1.20;;;;;;;-2.49;100.00;102227.47;5000318;28;20049;-75
2023/10/15 06:45:27;;;;;;;3.00;1.40;;;;;;;-2.59;100.00;102207.66;5016861;28;20040;-74
2023/10/15 06:47:55;;;;;;;1.98;1.25;;;;;;;-2.41;100.00;102225.41;4999984;28;20461;-73
2023/10/15 06:50:22;;;;;;;3.40;1.88;;;;;;;-2.38;100.00;102224.44;5016636;28;20025;-74
2023/10/15 06:52:47;;;;;;;2.42;1.20;;;;;;;-2.44;100.00;102225.53;4999825;28;20059;-74
2023/10/15 06:55:13;;;;;;;1.70;1.35;;;;;;;-2.35;100.00;102219.94;5000019;28;20388;-75
2023/10/15 06:57:40;;;;;;;2.83;1.58;;;;;;;-2.37;100.00;102224.41;5000387;28;20029;-74
2023/10/15 07:00:10;;;;;;;2.03;1.20;;;;;;;-2.36;100.00;102243.69;4968213;28;20049;-74
2023/10/15 07:02:37;;;;;;;3.85;1.80;;;;;;;-2.45;100.00;102231.72;5000560;28;20045;-74
2023/10/15 07:05:04;;;;;;;4.07;1.52;;;;;;;-2.37;100.00;102224.41;4999650;28;20034;-74
2023/10/15 07:07:33;;;;;;;5.80;1.60;;;;;;;-2.32;100.00;102232.13;5016407;28;20044;-74
2023/10/15 07:10:04;;;;;;;6.40;2.67;;;;;;;-2.36;100.00;102231.38;5000286;28;20033;-74
2023/10/15 07:12:36;;;;;;;5.15;1.80;;;;;;;-2.23;100.00;102237.91;5000817;28;20128;-74
2023/10/15 07:15:05;;;;;;;5.05;2.40;;;;;;;-2.15;100.00;102231.50;4984038;28;20053;-74
2023/10/15 07:17:31;;;;;;;3.80;1.73;;;;;;;-2.09;100.00;102236.53;5000587;28;20026;-74
2023/10/15 07:19:56;;;;;;;4.55;1.45;;;;;;;-2.17;100.00;102234.22;4983924;28;20090;-73
2023/10/15 07:22:22;;;;;;;3.70;1.92;;;;;;;-1.98;100.00;102239.63;4983788;28;20470;-73
2023/10/15 07:24:47;;;;;;;3.58;1.42;;;;;;;-1.90;100.00;102234.94;4999680;28;20030;-74
2023/10/15 07:27:16;;;;;;;3.15;1.30;;;;;;;-1.84;100.00;102245.22;5015781;28;20034;-74
2023/10/15 07:29:42;;;;;;;5.35;1.77;;;;;;;-1.79;100.00;102247.69;4983943;28;20053;-75
2023/10/15 07:32:08;;;;;;;3.75;1.13;;;;;;;-1.71;100.00;102242.13;4983637;28;20462;-76
2023/10/15 07:34:34;;;;;;;2.80;1.52;;;;;;;-1.65;100.00;102248.00;5015736;28;20465;-74
2023/10/15 07:37:00;;;;;;;3.80;1.80;;;;;;;-1.56;100.00;102252.06;4983376;28;20029;-73
2023/10/15 07:39:25;;;;;;;6.82;2.20;;;;;;;-1.40;100.00;102257.59;4983489;28;20037;-75
2023/10/15 07:41:52;;;;;;;4.22;1.75;;;;;;;-1.22;100.00;102259.47;4981741;28;20043;-74
2023/10/15 07:44:18;;;;;;;4.03;2.00;;;;;;;-1.08;100.00;102255.41;4997874;28;20048;-75
2023/10/15 07:46:45;;;;;;;4.22;2.10;;;;;;;-0.92;100.00;102252.06;4998183;28;20030;-74
2023/10/15 07:49:14;;;;;;;4.28;2.17;;;;;;;-0.78;100.00;102250.63;5015498;28;20049;-74
2023/10/15 07:51:39;;;;;;;4.38;1.98;;;;;;;-0.65;100.00;102246.50;4997058;28;20060;-74
2023/10/15 07:54:06;;;;;;;3.83;2.03;;;;;;;-0.53;100.00;102258.31;4967677;28;20075;-74
2023/10/15 07:56:34;;;;;;;7.00;2.58;;;;;;;-0.47;100.00;102245.72;4999067;28;20108;-76
2023/10/15 07:59:07;;;;;;;4.75;2.15;;;;;;;-0.35;100.00;102241.66;4998665;28;20574;-76
2023/10/15 08:01:33;;;;;;;4.60;1.67;;;;;;;-0.25;100.00;102250.03;4998921;28;20042;-76
2023/10/15 08:04:06;;;;;;;6.00;2.35;;;;;;;-0.16;100.00;102257.56;4999716;28;20239;-75
2023/10/15 08:06:36;;;;;;;9.50;2.13;;;;;;;-0.08;100.00;102257.19;4999343;28;20103;-75
2023/10/15 08:09:04;;;;;;;5.30;2.25;;;;;;;0.01;100.00;102258.56;4998933;28;20052;-75
2023/10/15 08:11:31;;;;;;;5.70;2.10;;;;;;;0.11;100.00;102259.88;4999504;28;20041;-75
2023/10/15 08:13:57;;;;;;;5.10;2.70;;;;;;;0.27;100.00;102260.84;4999100;28;20033;-75
2023/10/15 08:16:23;;;;;;;7.32;3.00;;;;;;;0.47;100.00;102264.31;4999390;28;20030;-75
2023/10/15 08:18:49;;;;;;;6.50;2.58;;;;;;;0.62;100.00;102263.59;5002546;28;20033;-75
2023/10/15 08:21:15;;;;;;;5.72;2.83;;;;;;;0.78;100.00;102264.56;5003204;28;20069;-76
2023/10/15 08:23:41;;;;;;;7.53;3.33;;;;;;;0.99;100.00;102272.38;4986823;28;20486;-76
2023/10/15 08:26:06;;;;;;;7.80;3.20;;;;;;;1.36;100.00;102274.00;4986271;28;20045;-74
2023/10/15 08:28:53;;;;;;;7.10;3.63;;;;;;;1.78;100.00;102271.84;4986988;28;20036;-74
2023/10/15 08:31:28;;;;;;;5.32;3.47;;;;;;;2.29;100.00;102264.66;5020251;28;20048;-75
2023/10/15 08:33:53;;;;;;;8.98;3.90;;;;;;;2.56;100.00;102271.06;4986266;28;20029;-75
2023/10/15 08:36:21;;;;;;;8.57;2.67;;;;;;;2.72;100.00;102265.72;5000962;28;20041;-73
2023/10/15 08:38:49;;;;;;;5.32;2.95;;;;;;;2.62;100.00;102268.06;4985606;28;20037;-75
2023/10/15 08:41:17;;;;;;;9.25;3.15;;;;;;;2.98;100.00;102274.84;5001369;28;20037;-77
2023/10/15 08:43:46;;;;;;;6.50;3.22;;;;;;;3.34;100.00;102276.28;5001072;28;20037;-75
2023/10/15 08:46:12;;;;;;;7.90;3.95;;;;;;;3.40;100.00;102265.28;5000606;28;20402;-74
2023/10/15 08:48:41;;;;;;;6.10;2.97;;;;;;;3.57;100.00;102268.72;4984764;28;20025;-74
2023/10/15 08:51:08;;;;;;;6.05;3.25;;;;;;;3.85;100.00;102274.06;5019153;28;20100;-74
2023/10/15 08:53:36;;;;;;;5.63;2.45;;;;;;;3.92;100.00;102272.75;4987279;28;20125;-74
2023/10/15 08:56:02;;;;;;;9.60;3.00;;;;;;;4.13;100.00;102275.03;4986260;28;20045;-76
2023/10/15 08:58:28;;;;;;;8.23;3.05;;;;;;;4.17;100.00;102273.84;4986019;28;20516;-74
2023/10/15 09:00:57;;;;;;;5.50;2.83;;;;;;;4.40;100.00;102264.41;5002535;28;20029;-75
2023/10/15 09:03:24;;;;;;;3.75;2.30;;;;;;;4.49;100.00;102260.28;5018748;28;20029;-74
2023/10/15 09:05:52;;;;;;;8.55;3.05;;;;;;;4.60;100.00;102263.09;5002093;28;20030;-74
2023/10/15 09:08:23;;;;;;;3.65;2.30;;;;;;;4.72;100.00;102250.81;5034188;28;20038;-73
2023/10/15 09:10:52;;;;;;;4.13;2.30;;;;;;;4.82;100.00;102266.09;5002424;28;20101;-73
2023/10/15 09:13:21;;;;;;;4.53;2.55;;;;;;;5.03;100.00;102269.13;5002940;28;20461;-73
2023/10/15 09:15:55;;;;;;;4.13;2.35;;;;;;;5.29;100.00;102259.38;5018488;28;20033;-74
2023/10/15 09:18:25;;;;;;;4.03;2.42;;;;;;;5.48;100.00;102248.28;5001033;28;20465;-73
2023/10/15 09:20:51;;;;;;;4.30;2.22;;;;;;;5.85;100.00;102256.41;5001300;28;20037;-72
2023/10/15 09:23:21;;;;;;;7.63;2.60;;;;;;;6.23;100.00;102251.97;5018525;28;20029;-72
2023/10/15 09:25:57;;;;;;;4.28;2.60;;;;;;;6.72;100.00;102262.59;5001419;28;20037;-73
2023/10/15 09:28:28;;;;;;;5.77;2.07;;;;;;;7.01;100.00;102259.53;5015741;28;20478;-74
2023/10/15 09:31:04;;;;;;;3.53;2.47;;;;;;;7.53;100.00;102263.59;5017353;28;20313;-74
2023/10/15 09:33:31;;;;;;;3.58;2.28;;;;;;;7.99;100.00;102262.69;5001547;28;20038;-74
2023/10/15 09:35:57;;;;;;;3.63;2.17;;;;;;;8.45;100.00;102255.47;5001957;28;20069;-74
2023/10/15 09:38:24;;;;;;;5.07;1.92;;;;;;;8.68;100.00;102257.09;5001764;28;20045;-74
2023/10/15 09:40:50;;;;;;;3.53;2.05;;;;;;;8.75;100.00;102266.31;5018101;28;20073;-75
2023/10/15 09:43:17;;;;;;;3.15;1.63;;;;;;;8.69;100.00;102256.13;4985705;28;20437;-74
2023/10/15 09:45:43;;;;;;;2.50;1.60;;;;;;;8.63;100.00;102258.47;5001487;28;20043;-75
2023/10/15 09:48:12;;;;;;;4.03;2.38;;;;;;;8.61;100.00;102260.41;5001456;28;20048;-75
2023/10/15 09:50:42;;;;;;;3.90;2.10;;;;;;;8.66;100.00;102253.69;5001794;28;20041;-74
2023/10/15 09:53:10;;;;;;;2.97;1.70;;;;;;;8.63;100.00;102261.16;4985726;28;20039;-74
2023/10/15 09:55:37;;;;;;;4.35;1.65;;;;;;;8.66;100.00;102264.41;4985899;28;20065;-74
2023/10/15 09:58:22;;;;;;;3.63;1.50;;;;;;;8.92;100.00;102254.22;5001562;28;20041;-74
2023/10/15 10:00:59;;;;;;;2.78;1.48;;;;;;;8.89;100.00;102261.66;5003907;28;20493;-74
2023/10/15 10:03:47;;;;;;;3.15;1.13;;;;;;;9.18;100.00;102252.03;5016780;28;20037;-74
2023/10/15 10:06:39;;;;;;;2.70;1.55;;;;;;;9.34;100.00;102258.75;5000624;28;20033;-74
2023/10/15 10:09:29;;;;;;;3.70;1.17;;;;;;;9.32;100.00;102258.91;5034008;28;20065;-74
2023/10/15 10:12:36;;;;;;;4.05;1.40;;;;;;;9.73;100.00;102254.47;5001358;28;20043;-74
2023/10/15 10:15:15;;;;;;;2.80;1.40;;;;;;;10.27;100.00;102265.88;4998098;28;20555;-74
2023/10/15 10:17:41;;;;;;;5.43;1.83;;;;;;;10.37;100.00;102257.84;5017391;28;20480;-74
2023/10/15 10:20:11;;;;;;;3.83;1.40;;;;;;;10.39;100.00;102248.66;5000890;28;20036;-74
2023/10/15 10:22:38;;;;;;;2.58;0.98;;;;;;;10.74;100.00;102245.47;5017386;28;20025;-74
2023/10/15 10:25:05;;;;;;;3.42;1.27;;;;;;;10.97;100.00;102251.41;5000628;28;20033;-74
2023/10/15 10:27:51;;;;;;;2.65;1.30;;;;;;;10.51;100.00;102249.41;5000543;28;20179;-75
2023/10/15 10:30:30;;;;;;;2.20;1.40;;;;;;;10.59;100.00;102248.72;4980375;28;20124;-75
2023/10/15 10:33:05;;;;;;;2.60;1.30;;;;;;;10.86;100.00;102248.00;4999270;28;20029;-74
2023/10/15 10:35:41;;;;;;;1.80;1.00;;;;;;;11.04;100.00;102251.69;5000589;28;20041;-74
2023/10/15 10:38:10;;;;;;;4.05;1.33;;;;;;;11.00;100.00;102243.03;4983661;28;20044;-74
2023/10/15 10:40:50;;;;;;;4.07;1.45;;;;;;;11.24;100.00;102244.44;4999903;28;20033;-74
2023/10/15 10:43:21;;;;;;;4.25;1.30;;;;;;;10.66;100.00;102244.44;5000563;28;20060;-74
2023/10/15 10:45:53;;;;;;;3.65;1.20;;;;;;;10.27;100.00;102236.28;5000517;28;20120;-74
2023/10/15 10:48:38;;;;;;;3.00;1.27;;;;;;;10.41;100.00;102241.31;4999814;28;20030;-74
2023/10/15 10:51:30;;;;;;;3.55;1.15;;;;;;;10.66;100.00;102241.75;5016826;28;20354;-74
2023/10/15 10:53:56;;;;;;;3.80;1.20;;;;;;;10.65;100.00;102240.91;5000756;28;20121;-74
2023/10/15 10:56:47;;;;;;;3.53;2.25;;;;;;;10.67;100.00;102238.94;4999760;28;20171;-73
2023/10/15 10:59:22;;;;;;;7.38;2.67;;;;;;;10.65;100.00;102232.00;5024170;28;20073;-73
2023/10/15 11:30:05;;;;;;;3.40;1.20;;;;;;;10.39;100.00;102235.22;5069389;28;20383;-73
2023/10/15 11:32:31;;;;;;;2.67;1.40;;;;;;;10.52;100.00;102229.56;5069586;28;20033;-74
2023/10/15 11:35:04;;;;;;;3.90;1.20;;;;;;;10.66;100.00;102229.16;5053496;28;20089;-73
2023/10/15 11:37:32;;;;;;;1.95;1.13;;;;;;;10.94;100.00;102218.56;5023960;28;20140;-74
2023/10/15 11:39:57;;;;;;;2.85;1.10;;;;;;;11.23;100.00;102218.53;5016103;28;20403;-74
2023/10/15 11:42:26;;;;;;;5.38;2.13;;;;;;;11.44;100.00;102221.03;5033228;28;20037;-74
2023/10/15 11:44:55;;;;;;;2.85;1.17;;;;;;;11.29;100.00;102222.47;5032704;28;20052;-73
2023/10/15 11:47:24;;;;;;;3.40;1.38;;;;;;;11.11;100.00;102211.59;5033233;28;20116;-73
2023/10/15 11:49:50;;;;;;;6.10;3.03;;;;;;;11.24;100.00;102212.13;5049170;28;20045;-74
2023/10/15 11:52:22;;;;;;;3.83;1.80;;;;;;;11.22;100.00;102209.59;5049318;28;20037;-76
2023/10/15 11:54:51;;;;;;;5.05;2.00;;;;;;;11.39;100.00;102201.75;5016676;28;20411;-74
2023/10/15 11:57:23;;;;;;;10.57;4.75;;;;;;;11.68;100.00;102200.81;5017053;28;20041;-74
2023/10/15 11:59:50;;;;;;;4.72;1.90;;;;;;;11.85;100.00;102192.81;5015992;28;20033;-73
2023/10/15 12:02:18;;;;;;;2.95;1.38;;;;;;;11.95;100.00;102195.47;5048897;28;20025;-74
2023/10/15 12:04:47;;;;;;;9.98;4.10;;;;;;;12.13;100.00;102195.53;5015605;28;20037;-73
2023/10/15 12:07:21;;;;;;;5.50;3.08;;;;;;;12.05;100.00;102195.44;5029744;28;20060;-73
2023/10/15 12:09:48;;;;;;;4.90;1.60;;;;;;;11.97;100.00;102184.56;5037215;28;20028;-74